createdAt,value
2019-03-09T00:00:34.839Z,29.32
2019-03-09T00:01:32.617Z,29.32
2019-03-09T00:02:10.100Z,29.37
2019-03-09T00:02:46.241Z,29.37
2019-03-09T00:03:22.338Z,29.37
2019-03-09T00:03:58.532Z,29.41
2019-03-09T00:04:36.161Z,29.46
2019-03-09T00:05:12.235Z,29.51
2019-03-09T00:05:48.320Z,29.54
2019-03-09T00:06:24.470Z,29.52
2019-03-09T00:07:00.624Z,29.51
2019-03-09T00:07:36.811Z,29.53
2019-03-09T00:08:12.882Z,29.60
2019-03-09T00:08:48.972Z,29.55
2019-03-09T00:09:25.075Z,29.55
2019-03-09T00:10:01.193Z,29.54
2019-03-09T00:10:37.418Z,29.47
2019-03-09T00:11:13.743Z,29.50
2019-03-09T00:11:49.870Z,29.49
2019-03-09T00:12:25.945Z,29.49
2019-03-09T00:13:02.061Z,29.49
2019-03-09T00:13:38.140Z,29.48
2019-03-09T00:14:14.309Z,29.49
2019-03-09T00:14:50.386Z,29.51
2019-03-09T00:15:26.462Z,29.49
2019-03-09T00:16:02.605Z,29.44
2019-03-09T00:16:38.748Z,29.44
2019-03-09T00:17:14.876Z,29.47
2019-03-09T00:17:50.947Z,29.45
2019-03-09T00:18:26.956Z,29.44
2019-03-09T00:19:03.022Z,29.43
2019-03-09T00:19:39.165Z,29.43
2019-03-09T00:20:15.254Z,29.44
2019-03-09T00:20:51.571Z,29.44
2019-03-09T00:21:28.022Z,29.43
2019-03-09T00:22:04.157Z,29.44
2019-03-09T00:22:41.557Z,29.40
2019-03-09T00:23:24.721Z,29.38
2019-03-09T00:24:18.066Z,29.37
2019-03-09T00:24:58.679Z,29.37
2019-03-09T00:25:38.079Z,29.34
2019-03-09T00:31:16.403Z,29.33
2019-03-09T00:32:17.357Z,29.31
2019-03-09T00:33:05.588Z,29.30
2019-03-09T00:33:42.082Z,29.29
2019-03-09T00:34:18.239Z,29.30
2019-03-09T00:34:54.329Z,29.33
2019-03-09T00:35:31.447Z,29.36
2019-03-09T00:36:07.562Z,29.40
2019-03-09T00:36:43.762Z,29.40
2019-03-09T00:37:20.142Z,29.43
2019-03-09T00:37:56.276Z,29.46
2019-03-09T00:38:32.742Z,29.51
2019-03-09T00:39:08.999Z,29.54
2019-03-09T00:39:45.069Z,29.57
2019-03-09T00:40:21.231Z,29.61
2019-03-09T00:40:57.377Z,29.63
2019-03-09T00:41:33.478Z,29.62
2019-03-09T00:42:09.541Z,29.74
2019-03-09T00:42:45.714Z,29.78
2019-03-09T00:43:21.829Z,29.85
2019-03-09T00:43:57.941Z,29.90
2019-03-09T00:44:34.021Z,29.95
2019-03-09T00:45:10.277Z,30.02
2019-03-09T00:45:46.357Z,30.02
2019-03-09T00:46:22.801Z,30.07
2019-03-09T00:46:58.871Z,30.14
2019-03-09T00:47:35.081Z,30.21
2019-03-09T00:48:11.218Z,30.30
2019-03-09T00:48:47.443Z,30.39
2019-03-09T00:49:23.559Z,30.45
2019-03-09T00:49:59.657Z,30.60
2019-03-09T00:50:35.741Z,30.67
2019-03-09T00:51:12.298Z,30.67
2019-03-09T00:51:48.513Z,30.68
2019-03-09T00:52:24.575Z,30.75
2019-03-09T00:53:00.726Z,30.84
2019-03-09T00:53:36.754Z,30.89
2019-03-09T00:54:15.112Z,30.92
2019-03-09T00:54:50.778Z,30.91
2019-03-09T00:55:27.124Z,31.05
2019-03-09T00:56:03.473Z,31.05
2019-03-09T00:56:39.629Z,31.01
2019-03-09T00:57:15.740Z,31.14
2019-03-09T00:57:51.956Z,31.14
2019-03-09T00:58:28.098Z,31.26
2019-03-09T00:59:04.325Z,31.29
2019-03-09T00:59:40.439Z,31.27
2019-03-09T01:00:20.833Z,31.29
2019-03-09T01:00:57.003Z,31.29
2019-03-09T01:01:33.159Z,31.33
2019-03-09T01:02:09.387Z,31.39
2019-03-09T01:02:45.601Z,31.39
2019-03-09T01:03:21.759Z,31.34
2019-03-09T01:03:58.465Z,31.28
2019-03-09T01:04:35.448Z,31.27
2019-03-09T01:05:12.563Z,31.26
2019-03-09T01:05:48.991Z,31.14
2019-03-09T01:06:25.512Z,31.14
2019-03-09T01:07:01.699Z,31.12
2019-03-09T01:07:37.810Z,31.10
2019-03-09T01:08:14.065Z,31.04
2019-03-09T01:08:50.163Z,31.07
2019-03-09T01:09:26.158Z,31.06
2019-03-09T01:10:02.300Z,31.02
2019-03-09T01:10:38.424Z,31.02
2019-03-09T01:11:14.572Z,31.02
2019-03-09T01:11:50.811Z,31.00
2019-03-09T01:12:27.015Z,31.00
2019-03-09T01:13:03.120Z,30.95
2019-03-09T01:13:39.241Z,30.95
2019-03-09T01:14:15.331Z,31.01
2019-03-09T01:14:51.618Z,31.01
2019-03-09T01:15:27.737Z,31.05
2019-03-09T01:16:03.921Z,31.19
2019-03-09T01:16:40.076Z,31.31
2019-03-09T01:17:16.132Z,31.43
2019-03-09T01:17:52.297Z,31.53
2019-03-09T01:18:28.366Z,31.65
2019-03-09T01:19:04.512Z,31.74
2019-03-09T01:19:40.662Z,31.82
2019-03-09T01:20:17.724Z,31.87
2019-03-09T01:20:53.898Z,31.98
2019-03-09T01:21:30.004Z,32.04
2019-03-09T01:22:06.064Z,31.99
2019-03-09T01:22:42.238Z,31.99
2019-03-09T01:23:18.404Z,32.07
2019-03-09T01:23:54.527Z,32.14
2019-03-09T01:24:30.705Z,32.23
2019-03-09T01:25:07.198Z,32.30
2019-03-09T01:25:43.343Z,32.34
2019-03-09T01:26:19.456Z,32.43
2019-03-09T01:26:55.536Z,32.49
2019-03-09T01:27:31.767Z,32.55
2019-03-09T01:28:08.155Z,32.52
2019-03-09T01:28:44.293Z,32.58
2019-03-09T01:29:20.572Z,32.67
2019-03-09T01:29:56.705Z,32.69
2019-03-09T01:30:32.892Z,32.67
2019-03-09T01:31:09.046Z,32.71
2019-03-09T01:31:45.280Z,32.79
2019-03-09T01:32:21.576Z,32.87
2019-03-09T01:32:57.702Z,32.96
2019-03-09T01:33:33.849Z,32.97
2019-03-09T01:34:09.889Z,33.05
2019-03-09T01:34:46.021Z,33.11
2019-03-09T01:35:22.242Z,33.13
2019-03-09T01:35:58.455Z,33.15
2019-03-09T01:36:34.624Z,33.19
2019-03-09T01:37:10.782Z,33.23
2019-03-09T01:37:46.972Z,33.23
2019-03-09T01:38:23.013Z,33.25
2019-03-09T01:38:59.093Z,33.20
2019-03-09T01:39:35.184Z,33.10
2019-03-09T01:40:12.204Z,33.12
2019-03-09T01:40:48.615Z,33.16
2019-03-09T01:41:24.671Z,33.16
2019-03-09T01:42:00.715Z,33.13
2019-03-09T01:42:36.864Z,33.17
2019-03-09T01:43:13.898Z,33.24
2019-03-09T01:43:49.997Z,33.29
2019-03-09T01:44:26.021Z,33.32
2019-03-09T01:45:03.982Z,33.37
2019-03-09T01:45:41.654Z,33.44
2019-03-09T01:46:19.407Z,33.45
2019-03-09T01:46:57.362Z,33.51
2019-03-09T01:47:42.369Z,33.59
2019-03-09T01:48:19.799Z,33.65
2019-03-09T01:48:59.695Z,33.72
2019-03-09T01:49:37.460Z,33.80
2019-03-09T01:50:15.708Z,33.85
2019-03-09T01:50:57.138Z,33.92
2019-03-09T01:51:37.579Z,33.98
2019-03-09T01:52:15.335Z,34.05
2019-03-09T01:52:55.260Z,34.12
2019-03-09T01:53:36.937Z,34.18
2019-03-09T01:54:12.449Z,34.22
2019-03-09T01:54:48.990Z,34.28
2019-03-09T01:55:25.374Z,34.33
2019-03-09T01:56:01.772Z,34.36
2019-03-09T01:56:38.009Z,34.41
2019-03-09T01:57:14.198Z,34.43
2019-03-09T01:57:50.549Z,34.46
2019-03-09T01:58:26.767Z,34.52
2019-03-09T01:59:02.959Z,34.57
2019-03-09T01:59:39.030Z,34.61
2019-03-09T02:00:15.413Z,34.62
2019-03-09T02:00:51.779Z,34.66
2019-03-09T02:01:28.019Z,34.68
2019-03-09T02:02:04.233Z,34.70
2019-03-09T02:02:40.486Z,34.75
2019-03-09T02:03:16.791Z,34.77
2019-03-09T02:03:52.862Z,34.81
2019-03-09T02:04:29.222Z,34.85
2019-03-09T02:05:05.460Z,34.86
2019-03-09T02:05:41.788Z,34.91
2019-03-09T02:06:18.104Z,34.93
2019-03-09T02:06:54.148Z,34.92
2019-03-09T02:07:30.423Z,34.94
2019-03-09T02:08:06.568Z,34.92
2019-03-09T02:08:42.689Z,34.94
2019-03-09T02:09:18.966Z,34.96
2019-03-09T02:09:55.128Z,34.98
2019-03-09T02:10:31.439Z,35.00
2019-03-09T02:11:07.644Z,34.99
2019-03-09T02:11:43.817Z,34.98
2019-03-09T02:12:20.008Z,34.97
2019-03-09T02:12:56.178Z,35.00
2019-03-09T02:13:32.310Z,35.00
2019-03-09T02:14:08.410Z,35.02
2019-03-09T02:14:44.648Z,35.00
2019-03-09T02:15:20.923Z,35.05
2019-03-09T02:15:57.209Z,35.07
2019-03-09T02:16:33.408Z,35.13
2019-03-09T02:17:09.462Z,35.16
2019-03-09T02:17:45.740Z,35.21
2019-03-09T02:18:21.865Z,35.21
2019-03-09T02:18:57.974Z,35.25
2019-03-09T02:19:34.026Z,35.30
2019-03-09T02:20:10.603Z,35.35
2019-03-09T02:20:46.853Z,35.39
2019-03-09T02:21:22.925Z,35.41
2019-03-09T02:21:59.414Z,35.46
2019-03-09T02:22:35.499Z,35.49
2019-03-09T02:23:11.537Z,35.49
2019-03-09T02:23:47.918Z,35.49
2019-03-09T02:24:24.176Z,35.51
2019-03-09T02:25:00.474Z,35.50
2019-03-09T02:25:36.620Z,35.53
2019-03-09T02:26:12.998Z,35.49
2019-03-09T02:26:49.466Z,35.46
2019-03-09T02:27:25.816Z,35.46
2019-03-09T02:28:02.031Z,35.46
2019-03-09T02:28:38.253Z,35.47
2019-03-09T02:29:14.717Z,35.46
2019-03-09T02:29:51.016Z,35.43
2019-03-09T02:30:27.394Z,35.43
2019-03-09T02:31:04.563Z,35.47
2019-03-09T02:31:40.777Z,35.45
2019-03-09T02:32:16.984Z,35.48
2019-03-09T02:32:53.430Z,35.46
2019-03-09T02:33:29.745Z,35.47
2019-03-09T02:34:06.096Z,35.42
2019-03-09T02:34:42.845Z,35.33
2019-03-09T02:35:19.045Z,35.30
2019-03-09T02:35:55.277Z,35.34
2019-03-09T02:36:31.544Z,35.36
2019-03-09T02:37:08.244Z,35.40
2019-03-09T02:37:46.824Z,35.46
2019-03-09T02:38:34.866Z,35.48
2019-03-09T02:39:40.631Z,35.49
2019-03-09T02:40:26.945Z,35.57
2019-03-09T02:41:03.742Z,35.61
2019-03-09T02:41:40.001Z,35.65
2019-03-09T02:42:16.608Z,35.69
2019-03-09T02:42:52.936Z,35.72
2019-03-09T02:43:29.411Z,35.74
2019-03-09T02:44:07.664Z,35.81
2019-03-09T02:44:44.216Z,35.83
2019-03-09T02:45:22.126Z,35.88
2019-03-09T02:45:58.770Z,35.90
2019-03-09T02:46:35.580Z,35.94
2019-03-09T02:47:12.115Z,35.98
2019-03-09T02:47:49.102Z,35.93
2019-03-09T02:48:28.502Z,35.95
2019-03-09T02:49:04.833Z,36.00
2019-03-09T02:49:41.213Z,35.99
2019-03-09T02:50:17.764Z,36.03
2019-03-09T02:50:57.509Z,36.08
2019-03-09T02:51:33.773Z,36.11
2019-03-09T02:52:13.433Z,36.14
2019-03-09T02:52:53.609Z,36.20
2019-03-09T02:53:30.526Z,36.22
2019-03-09T02:54:07.333Z,36.26
2019-03-09T02:54:46.474Z,36.33
2019-03-09T02:55:22.767Z,36.36
2019-03-09T02:55:59.237Z,36.35
2019-03-09T02:56:36.188Z,36.41
2019-03-09T02:57:12.971Z,36.45
2019-03-09T02:57:49.247Z,36.48
2019-03-09T02:58:25.405Z,36.49
2019-03-09T02:59:01.644Z,36.48
2019-03-09T02:59:37.902Z,36.48
2019-03-09T03:00:15.925Z,36.52
2019-03-09T03:01:10.923Z,36.52
2019-03-09T03:02:17.693Z,36.53
2019-03-09T03:02:59.630Z,36.55
2019-03-09T03:03:35.812Z,36.57
2019-03-09T03:04:12.158Z,36.60
2019-03-09T03:04:48.316Z,36.61
2019-03-09T03:05:24.489Z,36.64
2019-03-09T03:06:00.787Z,36.66
2019-03-09T03:06:36.850Z,36.68
2019-03-09T03:07:13.030Z,36.72
2019-03-09T03:07:49.194Z,36.74
2019-03-09T03:08:25.344Z,36.74
2019-03-09T03:09:01.581Z,36.78
2019-03-09T03:09:37.770Z,36.82
2019-03-09T03:10:14.074Z,36.87
2019-03-09T03:10:50.325Z,36.91
2019-03-09T03:11:26.462Z,36.93
2019-03-09T03:12:02.717Z,36.95
2019-03-09T03:12:38.910Z,36.95
2019-03-09T03:13:15.045Z,36.96
2019-03-09T03:13:51.947Z,36.93
2019-03-09T03:14:28.181Z,36.92
2019-03-09T03:15:04.823Z,36.93
2019-03-09T03:15:40.848Z,36.94
2019-03-09T03:16:17.086Z,36.94
2019-03-09T03:16:53.123Z,36.97
2019-03-09T03:17:29.282Z,36.98
2019-03-09T03:18:05.569Z,37.01
2019-03-09T03:18:41.729Z,37.05
2019-03-09T03:19:17.845Z,37.04
2019-03-09T03:19:53.843Z,37.05
2019-03-09T03:20:30.364Z,37.09
2019-03-09T03:21:06.573Z,37.14
2019-03-09T03:21:45.156Z,37.04
2019-03-09T03:22:20.469Z,37.06
2019-03-09T03:22:56.831Z,36.98
2019-03-09T03:23:33.149Z,36.96
2019-03-09T03:24:09.249Z,36.98
2019-03-09T03:24:45.377Z,36.99
2019-03-09T03:25:21.712Z,37.04
2019-03-09T03:25:57.897Z,37.07
2019-03-09T03:26:33.962Z,37.06
2019-03-09T03:27:10.054Z,37.06
2019-03-09T03:27:46.130Z,37.03
2019-03-09T03:28:22.242Z,37.06
2019-03-09T03:28:58.373Z,37.11
2019-03-09T03:29:34.492Z,37.12
2019-03-09T03:30:10.589Z,37.14
2019-03-09T03:30:46.769Z,37.18
2019-03-09T03:31:22.962Z,37.19
2019-03-09T03:31:59.168Z,37.16
2019-03-09T03:32:36.920Z,37.11
2019-03-09T03:33:13.070Z,37.13
2019-03-09T03:33:49.203Z,37.14
2019-03-09T03:34:25.326Z,37.16
2019-03-09T03:35:01.673Z,37.14
2019-03-09T03:35:37.840Z,37.17
2019-03-09T03:36:13.984Z,37.16
2019-03-09T03:36:51.009Z,37.16
2019-03-09T03:37:27.163Z,37.18
2019-03-09T03:38:03.329Z,37.21
2019-03-09T03:38:39.463Z,37.23
2019-03-09T03:39:15.598Z,37.25
2019-03-09T03:39:51.847Z,37.24
2019-03-09T03:40:27.996Z,37.29
2019-03-09T03:41:04.104Z,37.31
2019-03-09T03:41:40.325Z,37.34
2019-03-09T03:42:16.685Z,37.39
2019-03-09T03:42:52.837Z,37.43
2019-03-09T03:43:28.961Z,37.49
2019-03-09T03:44:05.281Z,37.50
2019-03-09T03:44:47.197Z,37.55
2019-03-09T03:45:23.354Z,37.54
2019-03-09T03:45:59.526Z,37.57
2019-03-09T03:46:35.626Z,37.56
2019-03-09T03:47:11.774Z,37.59
2019-03-09T03:47:48.212Z,37.61
2019-03-09T03:48:24.672Z,37.61
2019-03-09T03:49:00.791Z,37.64
2019-03-09T03:49:36.956Z,37.69
2019-03-09T03:50:13.142Z,37.69
2019-03-09T03:50:49.312Z,37.69
2019-03-09T03:51:28.274Z,37.64
2019-03-09T03:52:04.426Z,37.61
2019-03-09T03:52:40.512Z,37.59
2019-03-09T03:53:16.724Z,37.57
2019-03-09T03:53:52.860Z,37.58
2019-03-09T03:54:28.966Z,37.56
2019-03-09T03:55:05.070Z,37.57
2019-03-09T03:55:41.264Z,37.60
2019-03-09T03:56:17.338Z,37.67
2019-03-09T03:56:53.499Z,37.71
2019-03-09T03:57:29.567Z,37.76
2019-03-09T03:58:05.711Z,37.79
2019-03-09T03:58:41.786Z,37.82
2019-03-09T03:59:17.823Z,37.84
2019-03-09T03:59:54.041Z,37.82
2019-03-09T04:00:30.280Z,37.84
2019-03-09T04:01:06.530Z,37.79
2019-03-09T04:01:42.819Z,37.80
2019-03-09T04:02:18.894Z,37.83
2019-03-09T04:02:55.115Z,37.80
2019-03-09T04:03:31.173Z,37.81
2019-03-09T04:04:07.352Z,37.84
2019-03-09T04:04:43.506Z,37.84
2019-03-09T04:05:19.613Z,37.84
2019-03-09T04:05:55.873Z,37.88
2019-03-09T04:06:32.026Z,37.92
2019-03-09T04:07:08.318Z,37.89
2019-03-09T04:07:44.759Z,37.90
2019-03-09T04:08:21.464Z,37.91
2019-03-09T04:08:57.737Z,37.91
2019-03-09T04:09:33.846Z,37.89
2019-03-09T04:10:09.928Z,37.88
2019-03-09T04:10:45.957Z,37.86
2019-03-09T04:11:22.051Z,37.79
2019-03-09T04:11:58.274Z,37.77
2019-03-09T04:12:34.396Z,37.79
2019-03-09T04:13:10.544Z,37.72
2019-03-09T04:13:46.820Z,37.66
2019-03-09T04:14:22.943Z,37.59
2019-03-09T04:14:59.195Z,37.50
2019-03-09T04:15:35.355Z,37.42
2019-03-09T04:16:11.392Z,37.33
2019-03-09T04:16:47.516Z,37.26
2019-03-09T04:17:23.704Z,37.25
2019-03-09T04:17:59.839Z,37.19
2019-03-09T04:18:35.933Z,37.15
2019-03-09T04:19:11.969Z,37.10
2019-03-09T04:19:48.144Z,37.09
2019-03-09T04:20:24.208Z,37.02
2019-03-09T04:21:01.958Z,37.07
2019-03-09T04:21:38.186Z,37.09
2019-03-09T04:22:14.251Z,37.14
2019-03-09T04:22:50.517Z,37.17
2019-03-09T04:23:26.795Z,37.19
2019-03-09T04:24:02.848Z,37.18
2019-03-09T04:24:40.249Z,37.23
2019-03-09T04:25:16.385Z,37.22
2019-03-09T04:25:52.455Z,37.21
2019-03-09T04:26:28.730Z,37.25
2019-03-09T04:27:06.018Z,37.30
2019-03-09T04:27:46.219Z,37.35
2019-03-09T04:28:22.347Z,37.42
2019-03-09T04:28:58.546Z,37.46
2019-03-09T04:29:35.183Z,37.56
2019-03-09T04:30:11.397Z,37.63
2019-03-09T04:30:48.504Z,37.69
2019-03-09T04:31:24.595Z,37.73
2019-03-09T04:32:01.867Z,37.78
2019-03-09T04:32:38.079Z,37.78
2019-03-09T04:33:14.750Z,37.81
2019-03-09T04:33:51.476Z,37.84
2019-03-09T04:34:27.754Z,37.84
2019-03-09T04:35:03.965Z,37.87
2019-03-09T04:35:40.049Z,37.89
2019-03-09T04:36:16.074Z,37.92
2019-03-09T04:36:59.921Z,37.96
2019-03-09T04:37:36.062Z,38.00
2019-03-09T04:38:12.137Z,38.05
2019-03-09T04:38:48.274Z,38.07
2019-03-09T04:39:24.366Z,38.01
2019-03-09T04:40:01.375Z,37.89
2019-03-09T04:40:38.168Z,37.84
2019-03-09T04:41:14.414Z,37.83
2019-03-09T04:41:54.647Z,37.83
2019-03-09T04:42:31.060Z,37.86
2019-03-09T04:43:07.722Z,37.89
2019-03-09T04:43:44.240Z,37.92
2019-03-09T04:44:21.083Z,37.92
2019-03-09T04:44:57.487Z,37.97
2019-03-09T04:45:34.182Z,38.01
2019-03-09T04:46:16.424Z,38.06
2019-03-09T04:46:53.079Z,38.08
2019-03-09T04:47:29.441Z,38.11
2019-03-09T04:48:05.653Z,38.08
2019-03-09T04:48:41.903Z,38.09
2019-03-09T04:49:18.204Z,38.10
2019-03-09T04:49:54.301Z,38.10
2019-03-09T04:50:30.529Z,38.11
2019-03-09T04:51:06.851Z,38.13
2019-03-09T04:51:43.403Z,38.15
2019-03-09T04:52:19.768Z,38.19
2019-03-09T04:52:56.204Z,38.20
2019-03-09T04:53:32.556Z,38.22
2019-03-09T04:54:08.808Z,38.21
2019-03-09T04:54:45.057Z,38.22
2019-03-09T04:55:21.262Z,38.23
2019-03-09T04:55:57.559Z,38.22
2019-03-09T04:56:33.818Z,38.24
2019-03-09T04:57:10.074Z,38.25
2019-03-09T04:57:46.325Z,38.27
2019-03-09T04:58:22.526Z,38.28
2019-03-09T04:58:58.600Z,38.30
2019-03-09T04:59:34.746Z,38.33
2019-03-09T05:00:11.274Z,38.35
2019-03-09T05:00:47.925Z,38.38
2019-03-09T05:01:24.165Z,38.39
2019-03-09T05:02:00.252Z,38.42
2019-03-09T05:02:36.355Z,38.42
2019-03-09T05:03:12.489Z,38.43
2019-03-09T05:03:56.179Z,38.46
2019-03-09T05:04:52.304Z,38.43
2019-03-09T05:05:28.479Z,38.46
2019-03-09T05:06:04.976Z,38.46
2019-03-09T05:06:41.245Z,38.44
2019-03-09T05:07:35.255Z,38.47
2019-03-09T05:08:43.821Z,38.45
2019-03-09T05:09:46.257Z,38.43
2019-03-09T05:10:35.818Z,38.50
2019-03-09T05:11:24.062Z,38.54
2019-03-09T05:12:00.462Z,38.56
2019-03-09T05:12:36.623Z,38.59
2019-03-09T05:13:16.305Z,38.57
2019-03-09T05:14:08.003Z,38.61
2019-03-09T05:14:43.981Z,38.59
2019-03-09T05:15:20.032Z,38.54
2019-03-09T05:15:56.840Z,38.51
2019-03-09T05:16:33.090Z,38.51
2019-03-09T05:17:09.260Z,38.52
2019-03-09T05:17:45.443Z,38.52
2019-03-09T05:18:21.626Z,38.55
2019-03-09T05:18:57.808Z,38.50
2019-03-09T05:19:33.786Z,38.46
2019-03-09T05:20:10.151Z,38.45
2019-03-09T05:20:46.273Z,38.46
2019-03-09T05:21:22.511Z,38.43
2019-03-09T05:21:59.032Z,38.41
2019-03-09T05:22:35.293Z,38.42
2019-03-09T05:23:11.460Z,38.45
2019-03-09T05:23:47.530Z,38.44
2019-03-09T05:24:23.629Z,38.46
2019-03-09T05:24:59.748Z,38.47
2019-03-09T05:25:35.935Z,38.52
2019-03-09T05:26:12.026Z,38.50
2019-03-09T05:26:48.337Z,38.54
2019-03-09T05:27:24.684Z,38.56
2019-03-09T05:28:00.743Z,38.58
2019-03-09T05:28:36.880Z,38.65
2019-03-09T05:29:13.025Z,38.57
2019-03-09T05:29:49.263Z,38.57
2019-03-09T05:30:44.666Z,38.49
2019-03-09T05:31:20.881Z,38.55
2019-03-09T05:31:57.172Z,38.63
2019-03-09T05:32:33.364Z,38.66
2019-03-09T05:33:09.626Z,38.73
2019-03-09T05:33:45.813Z,38.80
2019-03-09T05:34:22.199Z,38.84
2019-03-09T05:34:58.374Z,38.86
2019-03-09T05:35:34.496Z,38.89
2019-03-09T05:36:13.017Z,38.90
2019-03-09T05:36:50.191Z,38.93
2019-03-09T05:37:26.528Z,38.95
2019-03-09T05:38:03.022Z,38.96
2019-03-09T05:38:39.254Z,39.00
2019-03-09T05:39:15.759Z,39.04
2019-03-09T05:39:51.995Z,39.04
2019-03-09T05:40:28.192Z,39.03
2019-03-09T05:41:05.036Z,39.06
2019-03-09T05:41:41.414Z,39.08
2019-03-09T05:42:17.636Z,39.02
2019-03-09T05:42:53.935Z,39.02
2019-03-09T05:43:30.256Z,39.00
2019-03-09T05:44:06.479Z,39.01
2019-03-09T05:44:43.176Z,38.96
2019-03-09T05:45:19.432Z,38.85
2019-03-09T05:45:55.797Z,38.71
2019-03-09T05:46:32.148Z,38.58
2019-03-09T05:47:08.614Z,38.59
2019-03-09T05:47:44.930Z,38.48
2019-03-09T05:48:21.092Z,38.30
2019-03-09T05:48:57.221Z,38.19
2019-03-09T05:49:33.501Z,38.17
2019-03-09T05:50:10.093Z,38.20
2019-03-09T05:50:46.404Z,38.20
2019-03-09T05:51:22.836Z,38.23
2019-03-09T05:52:32.111Z,38.12
2019-03-09T05:53:19.020Z,38.02
2019-03-09T05:53:55.189Z,37.95
2019-03-09T05:54:31.409Z,37.92
2019-03-09T05:55:13.951Z,37.95
2019-03-09T05:55:50.073Z,37.90
2019-03-09T05:56:26.242Z,37.85
2019-03-09T05:57:02.382Z,37.77
2019-03-09T05:57:38.535Z,37.74
2019-03-09T05:58:14.941Z,37.74
2019-03-09T05:58:51.189Z,37.72
2019-03-09T05:59:27.346Z,37.74
2019-03-09T06:00:03.621Z,37.72
2019-03-09T06:00:40.475Z,37.71
2019-03-09T06:01:16.496Z,37.76
2019-03-09T06:01:52.650Z,37.76
2019-03-09T06:02:28.995Z,37.83
2019-03-09T06:03:05.404Z,37.85
2019-03-09T06:03:41.711Z,37.88
2019-03-09T06:04:17.790Z,37.87
2019-03-09T06:04:54.005Z,37.89
2019-03-09T06:05:37.575Z,37.94
2019-03-09T06:06:20.578Z,37.96
2019-03-09T06:06:56.667Z,38.03
2019-03-09T06:07:32.762Z,38.07
2019-03-09T06:08:09.529Z,38.09
2019-03-09T06:08:45.946Z,38.11
2019-03-09T06:09:22.051Z,38.09
2019-03-09T06:09:58.301Z,38.14
2019-03-09T06:10:34.568Z,38.17
2019-03-09T06:11:10.740Z,38.19
2019-03-09T06:11:46.888Z,38.21
2019-03-09T06:12:23.024Z,38.24
2019-03-09T06:12:59.080Z,38.28
2019-03-09T06:13:35.070Z,38.29
2019-03-09T06:14:11.349Z,38.26
2019-03-09T06:14:47.477Z,38.23
2019-03-09T06:15:23.634Z,38.24
2019-03-09T06:16:00.254Z,38.25
2019-03-09T06:16:36.338Z,38.23
2019-03-09T06:17:12.529Z,38.22
2019-03-09T06:17:48.648Z,38.17
2019-03-09T06:18:24.910Z,38.18
2019-03-09T06:19:00.979Z,38.18
2019-03-09T06:19:37.039Z,38.16
2019-03-09T06:20:13.178Z,38.21
2019-03-09T06:20:49.486Z,38.22
2019-03-09T06:21:25.634Z,38.22
2019-03-09T06:22:01.803Z,38.23
2019-03-09T06:22:37.909Z,38.20
2019-03-09T06:23:14.015Z,38.13
2019-03-09T06:23:50.037Z,38.19
2019-03-09T06:24:26.176Z,38.18
2019-03-09T06:25:02.271Z,38.23
2019-03-09T06:25:38.715Z,38.24
2019-03-09T06:26:14.865Z,38.24
2019-03-09T06:26:50.865Z,38.21
2019-03-09T06:27:26.855Z,38.17
2019-03-09T06:28:03.006Z,38.18
2019-03-09T06:28:39.412Z,38.05
2019-03-09T06:29:15.522Z,38.00
2019-03-09T06:29:52.202Z,37.93
2019-03-09T06:30:28.655Z,37.90
2019-03-09T06:31:04.960Z,37.81
2019-03-09T06:31:41.310Z,37.79
2019-03-09T06:32:52.046Z,37.75
2019-03-09T06:33:30.042Z,37.75
2019-03-09T06:34:07.114Z,37.69
2019-03-09T06:34:43.188Z,37.69
2019-03-09T06:35:19.501Z,37.73
2019-03-09T06:36:59.669Z,37.71
2019-03-09T06:37:35.952Z,37.78
2019-03-09T06:38:38.295Z,37.81
2019-03-09T06:39:25.450Z,37.88
2019-03-09T06:40:01.626Z,37.87
2019-03-09T06:40:37.795Z,37.90
2019-03-09T06:41:16.062Z,37.95
2019-03-09T06:42:37.262Z,37.88
2019-03-09T06:43:13.424Z,37.91
2019-03-09T06:43:50.005Z,37.96
2019-03-09T06:44:26.171Z,38.01
2019-03-09T06:45:02.507Z,37.97
2019-03-09T06:45:38.700Z,37.93
2019-03-09T06:46:14.796Z,37.96
2019-03-09T06:46:51.135Z,37.90
2019-03-09T06:47:27.345Z,37.88
2019-03-09T06:48:03.549Z,37.90
2019-03-09T06:48:40.022Z,37.86
2019-03-09T06:49:16.437Z,37.90
2019-03-09T06:49:52.585Z,37.91
2019-03-09T06:50:28.862Z,37.88
2019-03-09T06:51:05.190Z,37.87
2019-03-09T06:51:41.453Z,37.85
2019-03-09T06:52:20.772Z,37.86
2019-03-09T06:52:56.972Z,37.83
2019-03-09T06:53:33.280Z,37.89
2019-03-09T06:54:09.572Z,37.88
2019-03-09T06:54:45.872Z,37.89
2019-03-09T06:55:22.043Z,37.90
2019-03-09T06:55:58.197Z,37.97
2019-03-09T06:56:34.223Z,38.01
2019-03-09T06:57:14.050Z,38.01
2019-03-09T06:57:48.469Z,38.03
2019-03-09T06:58:24.710Z,37.99
2019-03-09T06:59:00.918Z,38.03
2019-03-09T06:59:37.081Z,38.07
2019-03-09T07:00:39.469Z,38.09
2019-03-09T07:01:25.104Z,38.11
2019-03-09T07:02:01.382Z,37.99
2019-03-09T07:02:37.544Z,37.95
2019-03-09T07:03:13.886Z,38.05
2019-03-09T07:03:50.193Z,38.10
2019-03-09T07:04:26.647Z,38.09
2019-03-09T07:05:02.936Z,38.10
2019-03-09T07:05:39.330Z,37.99
2019-03-09T07:06:15.686Z,37.91
2019-03-09T07:06:51.891Z,37.83
2019-03-09T07:07:28.230Z,37.71
2019-03-09T07:08:04.476Z,37.65
2019-03-09T07:08:40.692Z,37.60
2019-03-09T07:09:16.918Z,37.50
2019-03-09T07:09:53.056Z,37.48
2019-03-09T07:10:29.466Z,37.46
2019-03-09T07:11:05.568Z,37.42
2019-03-09T07:11:41.965Z,37.38
2019-03-09T07:12:18.300Z,37.34
2019-03-09T07:12:55.008Z,37.46
2019-03-09T07:13:31.113Z,37.57
2019-03-09T07:14:41.377Z,37.65
2019-03-09T07:15:22.976Z,37.73
2019-03-09T07:15:59.902Z,37.68
2019-03-09T07:16:35.999Z,37.62
2019-03-09T07:17:12.334Z,37.70
2019-03-09T07:17:48.712Z,37.78
2019-03-09T07:18:27.451Z,37.71
2019-03-09T07:19:03.714Z,37.73
2019-03-09T07:19:40.051Z,37.69
2019-03-09T07:20:16.637Z,37.66
2019-03-09T07:20:52.986Z,37.71
2019-03-09T07:21:29.301Z,37.73
2019-03-09T07:22:05.488Z,37.75
2019-03-09T07:22:41.708Z,37.77
2019-03-09T07:23:18.046Z,37.78
2019-03-09T07:23:54.406Z,37.77
2019-03-09T07:24:30.658Z,37.77
2019-03-09T07:25:07.134Z,37.77
2019-03-09T07:25:43.388Z,37.83
2019-03-09T07:26:20.034Z,37.82
2019-03-09T07:26:56.384Z,37.76
2019-03-09T07:27:32.505Z,37.58
2019-03-09T07:28:10.677Z,37.53
2019-03-09T07:28:47.156Z,37.49
2019-03-09T07:29:23.620Z,37.44
2019-03-09T07:29:59.875Z,37.36
2019-03-09T07:30:36.279Z,37.30
2019-03-09T07:31:15.223Z,37.19
2019-03-09T07:31:51.461Z,37.12
2019-03-09T07:32:28.239Z,37.09
2019-03-09T07:33:04.796Z,37.08
2019-03-09T07:33:41.040Z,37.09
2019-03-09T07:34:26.998Z,37.18
2019-03-09T07:35:03.274Z,37.17
2019-03-09T07:35:39.738Z,37.05
2019-03-09T07:36:16.008Z,36.99
2019-03-09T07:36:52.363Z,36.92
2019-03-09T07:37:28.685Z,36.88
2019-03-09T07:38:05.073Z,36.83
2019-03-09T07:38:41.316Z,36.77
2019-03-09T07:39:17.520Z,36.74
2019-03-09T07:39:53.728Z,36.70
2019-03-09T07:40:29.914Z,36.65
2019-03-09T07:41:06.239Z,36.59
2019-03-09T07:41:42.553Z,36.59
2019-03-09T07:42:20.924Z,36.55
2019-03-09T07:42:56.887Z,36.61
2019-03-09T07:43:33.152Z,36.69
2019-03-09T07:44:09.476Z,36.63
2019-03-09T07:44:45.766Z,36.60
2019-03-09T07:45:22.113Z,36.68
2019-03-09T07:45:58.617Z,36.77
2019-03-09T07:46:35.348Z,36.86
2019-03-09T07:47:11.651Z,36.89
2019-03-09T07:47:48.275Z,36.94
2019-03-09T07:48:24.362Z,37.00
2019-03-09T07:49:00.593Z,37.08
2019-03-09T07:49:36.805Z,37.17
2019-03-09T07:50:13.961Z,37.25
2019-03-09T07:50:50.163Z,37.28
2019-03-09T07:51:26.580Z,37.31
2019-03-09T07:52:02.804Z,37.42
2019-03-09T07:52:39.843Z,37.45
2019-03-09T07:53:16.242Z,37.47
2019-03-09T07:53:52.520Z,37.54
2019-03-09T07:54:28.713Z,37.66
2019-03-09T07:55:04.836Z,37.72
2019-03-09T07:55:41.188Z,37.80
2019-03-09T07:56:17.335Z,37.86
2019-03-09T07:56:53.478Z,37.89
2019-03-09T07:57:29.671Z,37.88
2019-03-09T07:58:07.169Z,37.84
2019-03-09T07:58:43.850Z,37.93
2019-03-09T07:59:19.943Z,38.03
2019-03-09T07:59:56.109Z,38.09
2019-03-09T08:00:32.267Z,38.15
2019-03-09T08:01:08.374Z,38.20
2019-03-09T08:01:44.718Z,38.23
2019-03-09T08:02:22.656Z,38.28
2019-03-09T08:02:58.891Z,38.33
2019-03-09T08:03:35.265Z,38.39
2019-03-09T08:04:11.728Z,38.42
2019-03-09T08:04:48.124Z,38.42
2019-03-09T08:05:24.704Z,38.46
2019-03-09T08:06:01.074Z,38.41